AirNav   Pilot Hours Calculator
 
 557 users online  

FL30 HCA New Port Richey Hospital Heliport
New Port Richey, Florida, USA

GOING TO NEW PORT RICHEY?


FAA INFORMATION EFFECTIVE 17 JUNE 2021

Location

FAA Identifier: FL30
Lat/Long: 28-14-06.5700N 082-43-20.5000W
28-14.109500N 082-43.341667W
28.2351583,-82.7223611
(estimated)
Elevation: 25 ft. / 8 m (estimated)
Variation: 02W (1985)
From city: 1 mile S of NEW PORT RICHEY, FL
Time zone: UTC -4 (UTC -5 during Standard Time)
Zip code: 34652

Heliport Operations

Heliport use: Private use, MEDICAL
Activation date: 01/1990
Control tower: no
ARTCC: MIAMI CENTER
FSS: SAINT PETERSBURG FLIGHT SERVICE STATION
Attendance: CONTINUOUS
Wind indicator: yes
Segmented circle: no
Lights: SS-SR

Heliport Communications

WX AWOS-3P at CLW (16 nm S): 119.225 (727-449-2184)
WX ASOS at TPA (19 nm SE): 126.45 (813-873-7228)
WX ASOS at PIE (20 nm S): 134.5 (727-531-3456)

Nearby radio navigation aids

VOR radial/distance  VOR name  Freq  Var
PIEr359/19.7ST PETERSBURG VORTAC116.4005W

 
NDB name  Hdg/Dist  Freq  Var  ID
COSME316/13.836805WTP - .--.
CAPOK001/14.436005WPI .--. ..

Heliport Services

Runway Information

Helipad H1

Dimensions: 60 x 60 ft. / 18 x 18 m
Surface: concrete, in good condition
Runway edge lights: FLD
Latitude: 28-14.109500N
Longitude: 082-43.341667W
Elevation: 25.0 ft.
Traffic pattern: leftleft

Heliport Ownership and Management from official FAA records

Ownership: Privately-owned
Owner: HCA NEW PORT RICHEY HOSPITAL
5637 MARINE PKWY PO BOX 996
NEW PORT RICHEY, FL 34656
Phone 813-848-1733
Manager: ANDREW ORAVEC, JR ADM
5637 MARINE PKWY PO BOX 996
NEW PORT RICHEY, FL 34656
Phone 813-848-1733
ADDITIONAL CONTACT: DEVIN SOMMISE 9330 STATE RD 54 TRINITY, FL 34655 727-834-4838

Additional Remarks

A52-H1 30' SCHOOL 2000' E; 175' TWR 900' E; 50' BLDG 200' E 14' BLDG 175' SW; 190'TWR 3000' S.
FOR CD CTC TAMPA APCH AT 813-878-2528

Instrument Procedures

There are no published instrument procedures at FL30.

Some nearby airports with instrument procedures:

KCLW - Clearwater Air Park (16 nm S)
KTPA - Tampa International Airport (19 nm SE)
KPIE - St Pete-Clearwater International Airport (20 nm S)
KBKV - Brooksville-Tampa Bay Regional Airport (20 nm NE)
KVDF - Tampa Executive Airport (24 nm SE)
 
Loc | Ops | Rwys | IFR | FBO | Links
Com | Nav | Svcs | Stats | Notes


 
Area around FL30 (HCA New Port Richey Hospital Heliport)
 
Road maps at: MapQuest Bing Google
 
Aerial photo
No photo
 
Sectional chart

 
Airport distance calculator
Flying to HCA New Port Richey Hospital Heliport? Find the distance to fly.

From to FL30

Sunrise and sunset
Times for 22-Jun-2021
 Local
(UTC-4)
 Zulu
(UTC)
Morning civil twilight06:0910:09
Sunrise06:3610:36
Sunset20:3000:30
Evening civil twilight20:5700:57

Current date and time
Zulu (UTC)  22-Jun-2021 05:26:59
Local (UTC-4)  22-Jun-2021 01:26:59
 
METAR
KCLW 
16nm S 
220515Z AUTO 13007KT 10SM SCT013 26/22 A3007 RMK AO2
KTPA 
19nm SE 
220453Z VRB04KT 10SM BKN025 26/23 A3008 RMK AO2 SLP186 T02560233 403330256
KPIE 
19nm S 
220453Z AUTO 10006KT 10SM CLR 27/24 A3007 RMK AO2 SLP183 T02670239 403330256
KBKV 
20nm NE 
220453Z AUTO 09004KT 10SM CLR 24/22 A3009 RMK AO2 SLP188 T02390217 403440239
KVDF 
24nm SE 
211215Z AUTO 17004KT 27/26 A3009 RMK AO2 PWINO
KTPF 
24nm SE 
220515Z AUTO 12004KT 10SM BKN110 24/23 A3009 RMK AO2
KMCF 
26nm SE 
220456Z AUTO 11008KT 10SM BKN190 24/24 A3005 RMK AO2 RAE00RAB00E00 SLP178 P0000 T02420240 403220242 FZRANO $
KSPG 
29nm S 
220500Z AUTO 14010KT 10SM BKN020 BKN031 BKN120 26/23 A3006 RMK AO2 T02610233 $
KZPH 
30nm E 
220515Z AUTO 00000KT 10SM CLR 22/22 A3010 RMK A02 T02230217
TAF
KTPA 
19nm SE 
220300Z 2203/2306 VRB05KT P6SM FEW025 SCT150 BKN250 TEMPO 2203/2204 VRB10G20KT 3SM TSRA SCT010CB BKN025 FM220500 12004KT P6SM FEW020 SCT150 BKN250 FM221300 15008KT P6SM SCT020 SCT150 BKN250 FM221700 21011KT P6SM VCTS SCT030CB SCT130 BKN250 FM222200 28010KT P6SM SCT035 SCT130 BKN250 FM230100 VRB05KT P6SM SCT030 SCT130 BKN250
KPIE 
19nm S 
211733Z 2118/2218 21010G15KT P6SM VCTS SCT035CB BKN200 FM212000 26011KT P6SM VCTS SCT035CB BKN150 FM220000 VRB05KT P6SM VCTS SCT025CB BKN150 FM220500 12006KT P6SM FEW025 SCT150 BKN200 FM221400 15011KT P6SM FEW025 SCT140 BKN200
NOTAMs
Click for the latest NOTAMs
NOTAMs are issued by the DoD/FAA and will open in a separate window not controlled by AirNav.

 

 
 

Would you like to see your business listed on this page?

 If your business provides an interesting product or service to pilots, flight crews, aircraft, or users of the HCA New Port Richey Hospital Heliport, you should consider listing it here.  To start the listing process, click on the button below
 
Add a business
 

Other Pages about HCA New Port Richey Hospital Heliport

Update a link
 
Copyright © AirNav, LLC. All rights reserved. Privacy Policy  Contact